createdAt,value
2023-01-27T00:01:08.750Z,6.10
2023-01-27T00:03:35.696Z,6.00
2023-01-27T00:06:04.534Z,6.00
2023-01-27T00:08:31.322Z,5.90
2023-01-27T00:11:18.554Z,5.90
2023-01-27T00:13:45.362Z,6.00
2023-01-27T00:16:12.285Z,5.90
2023-01-27T00:18:39.180Z,5.90
2023-01-27T00:21:24.536Z,5.80
2023-01-27T00:24:09.910Z,5.80
2023-01-27T00:26:36.712Z,5.80
2023-01-27T00:29:03.513Z,5.80
2023-01-27T00:31:50.315Z,5.90
2023-01-27T00:34:17.194Z,5.80
2023-01-27T00:36:44.048Z,5.80
2023-01-27T00:39:12.468Z,5.70
2023-01-27T00:41:40.540Z,5.70
2023-01-27T00:44:12.620Z,5.70
2023-01-27T00:46:41.513Z,5.80
2023-01-27T00:49:10.517Z,5.80
2023-01-27T00:51:37.443Z,5.80
2023-01-27T00:54:05.045Z,5.80
2023-01-27T00:56:32.166Z,5.70
2023-01-27T00:58:59.247Z,5.70
2023-01-27T01:01:26.860Z,5.80
2023-01-27T01:03:54.031Z,5.70
2023-01-27T01:06:21.305Z,5.70
2023-01-27T01:08:48.885Z,5.70
2023-01-27T01:11:18.080Z,5.60
2023-01-27T01:13:46.614Z,5.70
2023-01-27T01:16:20.595Z,5.60
2023-01-27T01:18:49.012Z,5.60
2023-01-27T01:21:16.166Z,5.60
2023-01-27T01:23:45.580Z,5.50
2023-01-27T01:26:16.266Z,5.60
2023-01-27T01:28:45.201Z,5.50
2023-01-27T01:31:17.476Z,5.60
2023-01-27T01:33:45.072Z,5.60
2023-01-27T01:36:19.048Z,5.50
2023-01-27T01:38:46.559Z,5.50
2023-01-27T01:41:19.030Z,5.50
2023-01-27T01:43:47.014Z,5.40
2023-01-27T01:46:14.029Z,5.50
2023-01-27T01:49:03.536Z,5.50
2023-01-27T01:51:43.155Z,5.50
2023-01-27T01:54:29.983Z,5.50
2023-01-27T01:57:08.002Z,5.50
2023-01-27T02:00:07.027Z,5.50
2023-01-27T02:02:41.935Z,5.50
2023-01-27T02:05:16.401Z,5.50
2023-01-27T02:07:57.609Z,5.40
2023-01-27T02:10:25.216Z,5.40
2023-01-27T02:12:52.014Z,5.40
2023-01-27T02:15:21.415Z,5.50
2023-01-27T02:17:49.282Z,5.50
2023-01-27T02:20:39.496Z,5.50
2023-01-27T02:23:20.330Z,5.40
2023-01-27T02:26:05.080Z,5.40
2023-01-27T02:28:33.660Z,5.40
2023-01-27T02:31:01.212Z,5.40
2023-01-27T02:33:28.643Z,5.40
2023-01-27T02:36:12.460Z,5.40
2023-01-27T02:38:47.504Z,5.30
2023-01-27T02:41:34.989Z,5.30
2023-01-27T02:44:01.938Z,5.30
2023-01-27T02:46:29.993Z,5.20
2023-01-27T02:48:57.268Z,5.20
2023-01-27T02:51:24.270Z,5.10
2023-01-27T02:53:51.703Z,5.10
2023-01-27T02:56:19.948Z,5.10
2023-01-27T02:58:47.257Z,5.10
2023-01-27T03:01:17.662Z,5.00
2023-01-27T03:03:47.488Z,5.10
2023-01-27T03:06:20.257Z,5.00
2023-01-27T03:08:47.890Z,5.00
2023-01-27T03:11:35.854Z,5.00
2023-01-27T03:14:03.663Z,5.00
2023-01-27T03:16:49.038Z,5.00
2023-01-27T03:19:16.931Z,5.00
2023-01-27T03:21:45.184Z,4.90
2023-01-27T03:24:12.479Z,4.90
2023-01-27T03:26:39.501Z,5.00
2023-01-27T03:29:26.565Z,5.00
2023-01-27T03:31:53.902Z,5.00
2023-01-27T03:34:21.634Z,4.90
2023-01-27T03:37:10.233Z,4.90
2023-01-27T03:39:55.484Z,4.90
2023-01-27T03:42:41.845Z,4.90
2023-01-27T03:45:28.182Z,4.90
2023-01-27T03:47:55.165Z,4.80
2023-01-27T03:50:31.065Z,4.80
2023-01-27T03:53:04.023Z,4.80
2023-01-27T03:55:36.572Z,4.80
2023-01-27T03:58:18.329Z,4.80
2023-01-27T04:00:49.302Z,4.90
2023-01-27T04:03:34.904Z,4.80
2023-01-27T04:06:51.715Z,4.90
2023-01-27T04:09:32.494Z,4.90
2023-01-27T04:12:02.606Z,4.90
2023-01-27T04:14:35.116Z,4.80
2023-01-27T04:17:07.263Z,4.90
2023-01-27T04:19:34.261Z,4.90
2023-01-27T04:22:02.097Z,5.00
2023-01-27T04:24:29.247Z,4.90
2023-01-27T04:27:03.543Z,4.90
2023-01-27T04:29:36.646Z,4.90
2023-01-27T04:32:09.340Z,4.90
2023-01-27T04:34:37.177Z,5.00
2023-01-27T04:37:06.776Z,5.00
2023-01-27T04:39:34.752Z,5.00
2023-01-27T04:42:02.101Z,5.00
2023-01-27T04:44:30.103Z,5.00
2023-01-27T04:46:56.927Z,5.10
2023-01-27T04:49:26.604Z,5.00
2023-01-27T04:51:53.769Z,5.10
2023-01-27T04:54:20.928Z,5.10
2023-01-27T04:57:01.283Z,5.10
2023-01-27T04:59:28.289Z,5.10
2023-01-27T05:01:55.655Z,5.10
2023-01-27T05:04:22.670Z,5.10
2023-01-27T05:06:49.529Z,5.10
2023-01-27T05:09:16.453Z,5.10
2023-01-27T05:11:43.297Z,5.10
2023-01-27T05:14:10.186Z,5.20
2023-01-27T05:16:38.919Z,5.10
2023-01-27T05:19:07.214Z,5.10
2023-01-27T05:21:34.003Z,5.10
2023-01-27T05:24:02.289Z,5.20
2023-01-27T05:26:29.225Z,5.10
2023-01-27T05:28:59.513Z,5.10
2023-01-27T05:31:31.478Z,5.20
2023-01-27T05:34:01.167Z,5.20
2023-01-27T05:36:29.642Z,5.20
2023-01-27T05:38:57.840Z,5.20
2023-01-27T05:41:25.624Z,5.30
2023-01-27T05:43:55.442Z,5.30
2023-01-27T05:46:29.904Z,5.20
2023-01-27T05:49:04.308Z,5.20
2023-01-27T05:51:36.612Z,5.20
2023-01-27T05:54:04.145Z,5.30
2023-01-27T05:56:31.488Z,5.20
2023-01-27T05:58:59.610Z,5.20
2023-01-27T06:01:30.931Z,5.20
2023-01-27T06:03:58.818Z,5.20
2023-01-27T06:06:28.977Z,5.20
2023-01-27T06:09:00.295Z,5.20
2023-01-27T06:11:27.424Z,5.20
2023-01-27T06:13:54.629Z,5.10
2023-01-27T06:16:23.283Z,5.10
2023-01-27T06:18:50.669Z,5.10
2023-01-27T06:21:18.379Z,5.10
2023-01-27T06:23:45.181Z,5.10
2023-01-27T06:26:17.985Z,5.10
2023-01-27T06:28:45.631Z,5.10
2023-01-27T06:31:16.181Z,5.10
2023-01-27T06:33:43.871Z,5.10
2023-01-27T06:36:14.845Z,5.10
2023-01-27T06:38:42.651Z,5.10
2023-01-27T06:41:09.745Z,5.10
2023-01-27T06:43:36.883Z,5.00
2023-01-27T06:46:05.868Z,5.00
2023-01-27T06:48:33.269Z,5.00
2023-01-27T06:51:00.284Z,5.00
2023-01-27T06:53:27.400Z,5.00
2023-01-27T06:56:01.698Z,5.00
2023-01-27T06:58:29.898Z,5.00
2023-01-27T07:00:57.126Z,5.10
2023-01-27T07:03:24.464Z,5.00
2023-01-27T07:05:52.313Z,4.90
2023-01-27T07:08:19.279Z,5.00
2023-01-27T07:10:46.130Z,5.00
2023-01-27T07:13:14.482Z,5.00
2023-01-27T07:15:41.808Z,5.00
2023-01-27T07:18:11.825Z,4.90
2023-01-27T07:20:40.345Z,4.90
2023-01-27T07:23:07.761Z,4.90
2023-01-27T07:25:35.508Z,4.90
2023-01-27T07:28:03.719Z,5.00
2023-01-27T07:30:32.047Z,4.90
2023-01-27T07:33:13.919Z,4.90
2023-01-27T07:35:42.772Z,4.80
2023-01-27T07:38:12.054Z,4.90
2023-01-27T07:40:38.932Z,4.90
2023-01-27T07:43:05.816Z,4.80
2023-01-27T07:45:34.819Z,4.90
2023-01-27T07:48:07.768Z,4.80
2023-01-27T07:50:36.155Z,4.70
2023-01-27T07:53:05.504Z,4.80
2023-01-27T07:55:33.682Z,4.80
2023-01-27T07:58:01.029Z,4.90
2023-01-27T08:00:29.046Z,4.90
2023-01-27T08:02:58.603Z,4.90
2023-01-27T08:05:26.204Z,4.90
2023-01-27T08:07:56.596Z,5.00
2023-01-27T08:10:25.391Z,5.00
2023-01-27T08:12:52.253Z,5.00
2023-01-27T08:15:19.423Z,5.10
2023-01-27T08:17:57.510Z,5.10
2023-01-27T08:20:27.503Z,5.10
2023-01-27T08:22:54.532Z,5.00
2023-01-27T08:25:22.073Z,4.90
2023-01-27T08:27:54.909Z,5.00
2023-01-27T08:30:22.659Z,4.90
2023-01-27T08:32:50.183Z,4.90
2023-01-27T08:35:17.143Z,4.90
2023-01-27T08:37:44.053Z,4.80
2023-01-27T08:40:12.194Z,4.90
2023-01-27T08:42:39.223Z,4.90
2023-01-27T08:45:06.581Z,4.90
2023-01-27T08:47:33.437Z,5.00
2023-01-27T08:50:00.287Z,5.00
2023-01-27T08:52:27.657Z,5.10
2023-01-27T08:54:54.573Z,5.20
2023-01-27T08:57:21.328Z,5.10
2023-01-27T08:59:48.111Z,5.00
2023-01-27T09:02:14.921Z,4.90
2023-01-27T09:04:44.237Z,5.00
2023-01-27T09:07:11.465Z,5.00
2023-01-27T09:09:38.264Z,5.10
2023-01-27T09:12:05.342Z,5.00
2023-01-27T09:14:32.136Z,5.00
2023-01-27T09:16:58.946Z,5.10
2023-01-27T09:19:25.801Z,5.10
2023-01-27T09:21:52.673Z,5.10
2023-01-27T09:24:20.474Z,5.10
2023-01-27T09:26:47.396Z,5.20
2023-01-27T09:29:14.351Z,5.30
2023-01-27T09:31:41.295Z,5.20
2023-01-27T09:34:08.112Z,5.20
2023-01-27T09:36:44.048Z,5.40
2023-01-27T09:39:12.495Z,5.40
2023-01-27T09:42:27.185Z,5.40
2023-01-27T09:45:20.134Z,5.40
2023-01-27T09:48:23.444Z,5.50
2023-01-27T09:51:14.161Z,5.50
2023-01-27T09:53:59.680Z,5.70
2023-01-27T09:56:40.080Z,5.80
2023-01-27T09:59:34.046Z,5.70
2023-01-27T10:02:44.337Z,5.80
2023-01-27T10:05:46.820Z,5.60
2023-01-27T10:08:44.151Z,5.60
2023-01-27T10:11:44.226Z,5.40
2023-01-27T10:14:52.302Z,5.40
2023-01-27T10:17:40.014Z,5.40
2023-01-27T10:20:28.309Z,5.40
2023-01-27T10:23:24.245Z,5.40
2023-01-27T10:26:04.308Z,5.50
2023-01-27T10:28:32.335Z,5.60
2023-01-27T10:31:17.880Z,5.70
2023-01-27T10:34:02.580Z,5.80
2023-01-27T10:36:58.169Z,5.80
2023-01-27T10:39:53.188Z,5.90
2023-01-27T10:42:36.865Z,5.80
2023-01-27T10:45:09.312Z,5.60
2023-01-27T10:48:18.617Z,5.60
2023-01-27T10:51:04.918Z,5.60
2023-01-27T10:53:57.609Z,5.70
2023-01-27T10:56:50.409Z,5.70
2023-01-27T11:00:21.969Z,5.60
2023-01-27T11:02:49.824Z,5.50
2023-01-27T11:05:35.326Z,5.50
2023-01-27T11:08:20.744Z,5.60
2023-01-27T11:11:12.397Z,5.50
2023-01-27T11:13:39.438Z,5.60
2023-01-27T11:16:18.986Z,5.50
2023-01-27T11:18:55.074Z,5.60
2023-01-27T11:21:27.978Z,5.70
2023-01-27T11:23:59.178Z,5.70
2023-01-27T11:26:43.364Z,5.60
2023-01-27T11:29:36.409Z,5.50
2023-01-27T11:32:21.183Z,5.50
2023-01-27T11:35:10.422Z,5.40
2023-01-27T11:37:48.405Z,5.50
2023-01-27T11:40:32.986Z,5.40
2023-01-27T11:43:01.545Z,5.40
2023-01-27T11:45:35.391Z,5.40
2023-01-27T11:48:07.481Z,5.40
2023-01-27T11:50:36.099Z,5.50
2023-01-27T11:53:24.276Z,5.40
2023-01-27T11:56:03.873Z,5.40
2023-01-27T11:58:40.925Z,5.50
2023-01-27T12:01:21.012Z,5.50
2023-01-27T12:04:18.045Z,5.40
2023-01-27T12:07:14.735Z,5.50
2023-01-27T12:09:42.586Z,5.50
2023-01-27T12:12:15.672Z,5.50
2023-01-27T12:14:58.540Z,5.50
2023-01-27T12:17:46.102Z,5.50
2023-01-27T12:20:21.886Z,5.60
2023-01-27T12:22:54.929Z,5.60
2023-01-27T12:25:41.440Z,5.70
2023-01-27T12:28:24.380Z,5.60
2023-01-27T12:30:56.292Z,5.60
2023-01-27T12:33:31.646Z,5.60
2023-01-27T12:36:03.390Z,5.70
2023-01-27T12:38:36.513Z,5.70
2023-01-27T12:41:07.564Z,5.80
2023-01-27T12:44:00.302Z,6.00
2023-01-27T12:46:29.907Z,6.10
2023-01-27T12:49:13.117Z,6.10
2023-01-27T12:51:51.768Z,6.10
2023-01-27T12:54:28.110Z,6.10
2023-01-27T12:57:02.640Z,6.00
2023-01-27T12:59:30.057Z,5.90
2023-01-27T13:02:20.780Z,5.90
2023-01-27T13:04:55.548Z,5.90
2023-01-27T13:07:31.756Z,6.00
2023-01-27T13:10:06.569Z,5.90
2023-01-27T13:12:50.688Z,6.00
2023-01-27T13:15:31.121Z,6.00
2023-01-27T13:18:01.179Z,6.00
2023-01-27T13:20:39.870Z,6.00
2023-01-27T13:23:18.653Z,5.90
2023-01-27T13:26:10.026Z,5.80
2023-01-27T13:29:09.125Z,5.70
2023-01-27T13:31:58.571Z,5.80
2023-01-27T13:34:46.823Z,5.80
2023-01-27T13:37:29.009Z,5.80
2023-01-27T13:40:18.212Z,5.70
2023-01-27T13:43:33.694Z,5.70
2023-01-27T13:46:24.128Z,5.80
2023-01-27T13:49:21.026Z,5.80
2023-01-27T13:51:47.841Z,5.70
2023-01-27T13:54:15.739Z,5.60
2023-01-27T13:57:19.990Z,5.60
2023-01-27T14:00:04.060Z,5.70
2023-01-27T14:03:25.082Z,5.50
2023-01-27T14:06:35.177Z,5.60
2023-01-27T14:09:43.997Z,5.60
2023-01-27T14:12:55.608Z,5.60
2023-01-27T14:15:50.456Z,5.50
2023-01-27T14:18:26.097Z,5.50
2023-01-27T14:21:12.047Z,5.50
2023-01-27T14:24:15.574Z,5.40
2023-01-27T14:27:06.424Z,5.50
2023-01-27T14:30:06.472Z,5.50
2023-01-27T14:32:58.446Z,5.60
2023-01-27T14:35:44.889Z,5.50
2023-01-27T14:38:43.486Z,5.40
2023-01-27T14:41:40.080Z,5.40
2023-01-27T14:44:19.086Z,5.40
2023-01-27T14:47:17.323Z,5.30
2023-01-27T14:50:02.519Z,5.40
2023-01-27T14:52:34.989Z,5.30
2023-01-27T14:55:05.340Z,5.30
2023-01-27T14:57:51.099Z,5.40
2023-01-27T15:00:38.998Z,5.40
2023-01-27T15:03:31.430Z,5.40
2023-01-27T15:06:17.709Z,5.40
2023-01-27T15:09:01.712Z,5.50
2023-01-27T15:11:49.580Z,5.50
2023-01-27T15:14:47.041Z,5.30
2023-01-27T15:17:21.055Z,5.30
2023-01-27T15:20:30.707Z,5.40
2023-01-27T15:23:27.702Z,5.30
2023-01-27T15:26:06.569Z,5.40
2023-01-27T15:28:39.609Z,5.20
2023-01-27T15:31:14.683Z,5.20
2023-01-27T15:34:04.225Z,5.20
2023-01-27T15:36:36.599Z,5.20
2023-01-27T15:39:09.467Z,5.20
2023-01-27T15:42:10.426Z,5.20
2023-01-27T15:45:01.284Z,5.20
2023-01-27T15:47:33.251Z,5.10
2023-01-27T15:50:14.557Z,5.20
2023-01-27T15:52:49.557Z,5.30
2023-01-27T15:55:30.069Z,5.30
2023-01-27T15:58:28.631Z,5.30
2023-01-27T16:00:59.520Z,5.20
2023-01-27T16:03:37.836Z,5.20
2023-01-27T16:06:09.640Z,5.20
2023-01-27T16:08:46.903Z,5.20
2023-01-27T16:11:29.158Z,5.20
2023-01-27T16:14:14.386Z,5.20
2023-01-27T16:17:07.604Z,5.20
2023-01-27T16:19:47.897Z,5.20
2023-01-27T16:22:19.714Z,5.10
2023-01-27T16:25:03.529Z,5.10
2023-01-27T16:27:56.875Z,5.20
2023-01-27T16:30:29.983Z,5.20
2023-01-27T16:33:07.299Z,5.20
2023-01-27T16:35:49.101Z,5.20
2023-01-27T16:38:42.323Z,5.10
2023-01-27T16:41:29.599Z,5.10
2023-01-27T16:44:38.751Z,5.10
2023-01-27T16:47:17.136Z,5.10
2023-01-27T16:49:45.184Z,5.20
2023-01-27T16:52:41.168Z,5.20
2023-01-27T16:55:21.863Z,5.20
2023-01-27T16:57:50.420Z,5.10
2023-01-27T17:00:31.632Z,5.20
2023-01-27T17:03:05.299Z,5.10
2023-01-27T17:05:32.463Z,5.20
2023-01-27T17:08:26.324Z,5.20
2023-01-27T17:11:04.835Z,5.20
2023-01-27T17:13:48.472Z,5.20
2023-01-27T17:16:28.809Z,5.20
2023-01-27T17:19:22.856Z,5.20
2023-01-27T17:21:55.425Z,5.20
2023-01-27T17:24:40.816Z,5.10
2023-01-27T17:27:44.556Z,5.10
2023-01-27T17:30:28.007Z,5.10
2023-01-27T17:32:58.961Z,5.10
2023-01-27T17:35:33.345Z,5.10
2023-01-27T17:38:24.837Z,5.10
2023-01-27T17:40:54.804Z,5.10
2023-01-27T17:43:40.443Z,5.00
2023-01-27T17:46:20.663Z,5.10
2023-01-27T17:48:58.963Z,5.00
2023-01-27T17:51:41.758Z,5.00
2023-01-27T17:54:32.504Z,5.00
2023-01-27T17:57:06.146Z,4.90
2023-01-27T17:59:38.508Z,5.00
2023-01-27T18:02:19.904Z,5.00
2023-01-27T18:04:47.640Z,4.90
2023-01-27T18:07:15.268Z,4.80
2023-01-27T18:09:53.494Z,4.90
2023-01-27T18:12:37.458Z,5.00
2023-01-27T18:15:59.761Z,4.90
2023-01-27T18:18:35.924Z,4.80
2023-01-27T18:21:17.571Z,4.90
2023-01-27T18:23:56.470Z,4.90
2023-01-27T18:26:32.377Z,4.90
2023-01-27T18:29:05.065Z,5.00
2023-01-27T18:31:37.571Z,4.80
2023-01-27T18:34:07.216Z,4.80
2023-01-27T18:36:38.869Z,4.70
2023-01-27T18:39:43.994Z,4.70
2023-01-27T18:42:16.637Z,4.70
2023-01-27T18:44:44.027Z,4.80
2023-01-27T18:47:19.381Z,4.80
2023-01-27T18:49:55.955Z,4.70
2023-01-27T18:52:23.506Z,4.80
2023-01-27T18:54:58.456Z,4.90
2023-01-27T18:57:25.304Z,4.80
2023-01-27T18:59:52.131Z,4.80
2023-01-27T19:02:20.476Z,4.80
2023-01-27T19:04:47.437Z,4.80
2023-01-27T19:07:18.979Z,4.70
2023-01-27T19:09:47.916Z,4.70
2023-01-27T19:12:15.264Z,4.80
2023-01-27T19:14:42.158Z,4.80
2023-01-27T19:17:23.869Z,4.80
2023-01-27T19:19:50.992Z,4.70
2023-01-27T19:22:20.574Z,4.80
2023-01-27T19:24:47.549Z,4.80
2023-01-27T19:27:17.355Z,4.70
2023-01-27T19:29:44.372Z,4.70
2023-01-27T19:32:15.080Z,4.60
2023-01-27T19:34:42.137Z,4.70
2023-01-27T19:37:18.462Z,4.70
2023-01-27T19:39:46.745Z,4.80
2023-01-27T19:42:16.204Z,4.80
2023-01-27T19:44:43.456Z,4.80
2023-01-27T19:47:12.928Z,4.80
2023-01-27T19:49:40.542Z,4.50
2023-01-27T19:52:07.602Z,4.60
2023-01-27T19:54:34.948Z,4.60
2023-01-27T19:57:01.813Z,4.60
2023-01-27T19:59:28.800Z,4.60
2023-01-27T20:01:56.922Z,4.60
2023-01-27T20:04:23.965Z,4.60
2023-01-27T20:06:50.939Z,4.60
2023-01-27T20:09:17.775Z,4.70
2023-01-27T20:11:45.088Z,4.60
2023-01-27T20:14:15.718Z,4.50
2023-01-27T20:16:43.691Z,4.50
2023-01-27T20:19:15.538Z,4.50
2023-01-27T20:21:43.769Z,4.50
2023-01-27T20:24:19.403Z,4.60
2023-01-27T20:26:47.114Z,4.50
2023-01-27T20:29:14.484Z,4.50
2023-01-27T20:31:42.221Z,4.40
2023-01-27T20:34:09.349Z,4.50
2023-01-27T20:36:36.169Z,4.40
2023-01-27T20:39:03.347Z,4.30
2023-01-27T20:41:30.144Z,4.30
2023-01-27T20:44:00.380Z,4.40
2023-01-27T20:46:29.713Z,4.40
2023-01-27T20:48:58.879Z,4.30
2023-01-27T20:51:25.770Z,4.40
2023-01-27T20:53:52.538Z,4.50
2023-01-27T20:56:23.454Z,4.40
2023-01-27T20:58:50.525Z,4.40
2023-01-27T21:01:21.246Z,4.40
2023-01-27T21:03:49.301Z,4.40
2023-01-27T21:06:19.347Z,4.40
2023-01-27T21:08:49.723Z,4.40
2023-01-27T21:11:19.969Z,4.50
2023-01-27T21:13:48.290Z,4.40
2023-01-27T21:16:15.254Z,4.50
2023-01-27T21:18:42.307Z,4.40
2023-01-27T21:21:28.436Z,4.30
2023-01-27T21:23:57.046Z,4.30
2023-01-27T21:26:24.459Z,4.30
2023-01-27T21:28:51.615Z,4.30
2023-01-27T21:31:21.653Z,4.20
2023-01-27T21:33:49.996Z,4.20
2023-01-27T21:36:19.187Z,4.30
2023-01-27T21:38:46.101Z,4.20
2023-01-27T21:41:44.847Z,4.30
2023-01-27T21:44:41.879Z,4.30
2023-01-27T21:47:12.625Z,4.30
2023-01-27T21:50:00.543Z,4.20
2023-01-27T21:52:48.591Z,4.10
2023-01-27T21:55:23.417Z,4.20
2023-01-27T21:57:52.477Z,4.30
2023-01-27T22:00:23.216Z,4.20
2023-01-27T22:03:07.926Z,4.20
2023-01-27T22:05:39.064Z,4.20
2023-01-27T22:08:06.853Z,4.20
2023-01-27T22:10:34.360Z,4.20
2023-01-27T22:13:04.059Z,4.20
2023-01-27T22:15:32.069Z,4.20
2023-01-27T22:17:59.514Z,4.20
2023-01-27T22:20:28.202Z,4.20
2023-01-27T22:22:55.505Z,4.20
2023-01-27T22:25:22.592Z,4.20
2023-01-27T22:27:53.007Z,4.20
2023-01-27T22:30:20.106Z,4.20
2023-01-27T22:32:48.474Z,4.20
2023-01-27T22:35:18.231Z,4.10
2023-01-27T22:37:46.596Z,4.20
2023-01-27T22:40:16.435Z,4.10
2023-01-27T22:42:43.416Z,4.20
2023-01-27T22:45:11.227Z,4.10
2023-01-27T22:47:38.212Z,4.10
2023-01-27T22:50:05.936Z,4.10
2023-01-27T22:52:36.718Z,4.10
2023-01-27T22:55:10.644Z,4.10
2023-01-27T22:57:37.910Z,4.10
2023-01-27T23:00:06.985Z,4.00
2023-01-27T23:02:35.747Z,3.90
2023-01-27T23:05:02.817Z,4.00
2023-01-27T23:07:29.777Z,4.00
2023-01-27T23:09:56.926Z,4.00
2023-01-27T23:12:23.942Z,4.10
2023-01-27T23:14:50.861Z,4.10
2023-01-27T23:17:17.766Z,4.10
2023-01-27T23:19:44.698Z,4.10
2023-01-27T23:22:11.716Z,4.00
2023-01-27T23:24:39.488Z,4.10
2023-01-27T23:27:06.385Z,4.10
2023-01-27T23:29:33.310Z,4.10
2023-01-27T23:32:00.369Z,4.00
2023-01-27T23:34:27.535Z,4.20
2023-01-27T23:36:54.578Z,4.10
2023-01-27T23:39:21.678Z,4.10
2023-01-27T23:41:48.631Z,4.00
2023-01-27T23:44:15.716Z,4.00
2023-01-27T23:46:43.319Z,4.10
2023-01-27T23:49:12.119Z,4.10
2023-01-27T23:51:39.045Z,4.10
2023-01-27T23:54:06.088Z,4.00
2023-01-27T23:56:33.219Z,4.00
2023-01-27T23:59:00.145Z,4.00
